Time;durP1;ratioP1;P1;durP2;ratioP2;P2;SDS_P1;SDS_P2;PMS_P1;PMS_P2;Temp;Humidity;BMP_temperature;BMP_pressure;BME280_temperature;BME280_humidity;BME280_pressure;Samples;Min_cycle;Max_cycle;Signal;HPM_P1;HPM_P2
2024/02/12 00:00:37;;;;;;;1.77;0.83;;;10.70;99.90;;;;;;5055047;28;20312;-61
2024/02/12 00:03:05;;;;;;;2.57;0.80;;;10.70;99.90;;;;;;5055163;28;20256;-61
2024/02/12 00:05:35;;;;;;;1.93;1.20;;;10.60;99.90;;;;;;5054970;28;20205;-62
2024/02/12 00:08:04;;;;;;;1.13;0.60;;;10.70;99.90;;;;;;5055046;28;20221;-61
2024/02/12 00:10:31;;;;;;;2.23;0.73;;;10.70;99.90;;;;;;5054506;28;20229;-61
2024/02/12 00:12:57;;;;;;;0.90;0.60;;;10.70;99.90;;;;;;5054695;28;20210;-61
2024/02/12 00:15:24;;;;;;;0.90;0.50;;;10.80;99.90;;;;;;5054587;28;20252;-61
2024/02/12 00:17:52;;;;;;;0.83;0.50;;;10.90;99.90;;;;;;5054996;28;20206;-61
2024/02/12 00:20:19;;;;;;;2.07;0.63;;;10.80;99.90;;;;;;5054568;28;20275;-61
2024/02/12 00:22:45;;;;;;;1.10;0.67;;;10.80;99.90;;;;;;5046553;28;20201;-61
2024/02/12 00:25:13;;;;;;;1.47;0.57;;;10.80;99.90;;;;;;5054555;28;20748;-61
2024/02/12 00:27:39;;;;;;;0.63;0.50;;;10.70;99.90;;;;;;5054643;28;20202;-61
2024/02/12 00:30:08;;;;;;;0.50;0.50;;;10.70;99.90;;;;;;5054471;28;20232;-61
2024/02/12 00:32:36;;;;;;;1.57;0.63;;;10.80;99.90;;;;;;5054614;28;20206;-62
2024/02/12 00:35:04;;;;;;;1.00;0.60;;;10.70;99.90;;;;;;5054510;28;20293;-61
2024/02/12 00:37:34;;;;;;;1.90;0.67;;;10.70;99.90;;;;;;5054386;28;20206;-61
2024/02/12 00:40:00;;;;;;;0.97;0.50;;;10.70;99.90;;;;;;5053971;28;20251;-61
2024/02/12 00:42:27;;;;;;;1.33;0.50;;;10.70;99.90;;;;;;5054303;28;20627;-61
2024/02/12 00:44:56;;;;;;;1.23;0.60;;;10.70;99.90;;;;;;5054391;28;20296;-61
2024/02/12 00:47:24;;;;;;;1.37;0.53;;;10.70;99.90;;;;;;5053939;28;20237;-61
2024/02/12 00:49:51;;;;;;;1.07;0.50;;;10.70;99.90;;;;;;5053813;28;20236;-61
2024/02/12 00:52:19;;;;;;;0.70;0.60;;;10.80;99.90;;;;;;5054067;28;20206;-61
2024/02/12 00:54:45;;;;;;;1.03;0.67;;;10.90;99.90;;;;;;5053871;28;20213;-61
2024/02/12 00:57:12;;;;;;;0.90;0.60;;;10.80;99.90;;;;;;5054260;28;20252;-61
2024/02/12 00:59:40;;;;;;;0.63;0.50;;;10.70;99.90;;;;;;5053486;28;20650;-61
2024/02/12 01:02:08;;;;;;;1.60;0.50;;;10.60;99.90;;;;;;5054030;28;20301;-61
2024/02/12 01:04:35;;;;;;;2.33;0.70;;;10.60;99.90;;;;;;5053816;28;20236;-61
2024/02/12 01:07:03;;;;;;;1.83;0.50;;;10.60;99.90;;;;;;5053749;28;20206;-61
2024/02/12 01:09:31;;;;;;;0.90;0.53;;;10.60;99.90;;;;;;5053440;28;20240;-61
2024/02/12 01:11:59;;;;;;;0.47;0.47;;;10.60;99.90;;;;;;5053754;28;20296;-61
2024/02/12 01:14:28;;;;;;;0.70;0.50;;;10.60;99.90;;;;;;5053709;28;20213;-61
2024/02/12 01:16:55;;;;;;;0.40;0.33;;;10.70;99.90;;;;;;5053580;28;20672;-61
2024/02/12 01:19:22;;;;;;;1.10;0.40;;;10.60;99.90;;;;;;5053167;28;20205;-61
2024/02/12 01:21:49;;;;;;;0.83;0.50;;;10.50;99.90;;;;;;5045799;28;20638;-61
2024/02/12 01:24:16;;;;;;;2.50;0.60;;;10.40;99.90;;;;;;5053671;28;20220;-61
2024/02/12 01:26:44;;;;;;;0.93;0.50;;;10.40;99.90;;;;;;5053488;28;20683;-62
2024/02/12 01:29:11;;;;;;;0.83;0.53;;;10.30;99.90;;;;;;5053194;28;20221;-61
2024/02/12 01:31:38;;;;;;;0.80;0.50;;;10.30;99.90;;;;;;5053224;28;20703;-61
2024/02/12 01:34:05;;;;;;;0.93;0.40;;;10.30;99.90;;;;;;5053240;28;20205;-62
2024/02/12 01:36:32;;;;;;;1.03;0.50;;;10.40;99.90;;;;;;5053484;28;20292;-62
2024/02/12 01:38:58;;;;;;;1.53;0.53;;;10.40;99.90;;;;;;5053127;28;20293;-62
2024/02/12 01:41:25;;;;;;;1.33;0.40;;;10.40;99.90;;;;;;5053089;28;20233;-61
2024/02/12 01:43:53;;;;;;;0.47;0.40;;;10.40;99.90;;;;;;5053262;28;20225;-61
2024/02/12 01:46:20;;;;;;;0.40;0.40;;;10.40;99.90;;;;;;5053113;28;20205;-61
2024/02/12 01:48:48;;;;;;;0.87;0.50;;;10.50;99.90;;;;;;5052400;28;20686;-61
2024/02/12 01:51:16;;;;;;;0.30;0.30;;;10.50;99.90;;;;;;5052966;28;20240;-61
2024/02/12 01:53:46;;;;;;;0.90;0.43;;;10.50;99.90;;;;;;5053000;28;20202;-61
2024/02/12 01:56:13;;;;;;;1.67;0.57;;;10.50;99.90;;;;;;5053061;28;20206;-61
2024/02/12 01:58:41;;;;;;;0.93;0.50;;;10.50;99.90;;;;;;5052523;28;20275;-61
2024/02/12 02:01:12;;;;;;;1.80;0.47;;;10.60;99.90;;;;;;5051912;28;20344;-61
2024/02/12 02:03:39;;;;;;;1.63;0.50;;;10.60;99.90;;;;;;5052622;28;20264;-61
2024/02/12 02:06:07;;;;;;;1.17;0.67;;;10.50;99.90;;;;;;5052918;28;20220;-61
2024/02/12 02:08:36;;;;;;;1.20;0.53;;;10.50;99.90;;;;;;5052452;28;20229;-61
2024/02/12 02:11:04;;;;;;;0.50;0.30;;;10.50;99.90;;;;;;5052643;28;20221;-61
2024/02/12 02:13:32;;;;;;;1.13;0.50;;;10.40;99.90;;;;;;5052571;28;20205;-61
2024/02/12 02:15:59;;;;;;;1.60;0.50;;;10.50;99.90;;;;;;5052427;28;20205;-61
2024/02/12 02:18:27;;;;;;;1.17;0.50;;;10.50;99.90;;;;;;5052499;28;20206;-61
2024/02/12 02:20:54;;;;;;;1.83;0.50;;;10.50;99.90;;;;;;5052037;28;20589;-61
2024/02/12 02:23:20;;;;;;;0.47;0.40;;;10.40;99.90;;;;;;5052363;28;20224;-61
2024/02/12 02:25:49;;;;;;;1.67;0.40;;;10.40;99.90;;;;;;5052229;28;20713;-61
2024/02/12 02:28:16;;;;;;;0.77;0.40;;;10.30;99.90;;;;;;5052302;28;20233;-61
2024/02/12 02:30:43;;;;;;;0.77;0.40;;;10.30;99.90;;;;;;5051620;28;20233;-61
2024/02/12 02:33:09;;;;;;;0.73;0.60;;;10.30;99.90;;;;;;5052405;28;20206;-61
2024/02/12 02:35:36;;;;;;;1.40;0.60;;;10.30;99.90;;;;;;5052180;28;20312;-61
2024/02/12 02:38:03;;;;;;;0.70;0.60;;;10.30;99.90;;;;;;5052283;28;20197;-61
2024/02/12 02:40:30;;;;;;;1.17;0.67;;;10.30;99.90;;;;;;5051726;28;20234;-61
2024/02/12 02:43:00;;;;;;;1.57;0.30;;;10.30;99.90;;;;;;5051944;28;20293;-61
2024/02/12 02:45:27;;;;;;;1.27;0.50;;;10.30;99.90;;;;;;5052044;28;20210;-61
2024/02/12 02:47:55;;;;;;;1.50;0.50;;;10.40;99.90;;;;;;5052165;28;20217;-61
2024/02/12 02:50:22;;;;;;;0.80;0.50;;;10.40;99.90;;;;;;5051696;28;20217;-61
2024/02/12 02:52:48;;;;;;;0.60;0.30;;;10.40;99.90;;;;;;5052167;28;20205;-61
2024/02/12 02:55:17;;;;;;;1.57;0.60;;;10.50;99.90;;;;;;5051840;28;20291;-61
2024/02/12 02:57:44;;;;;;;1.07;0.50;;;10.50;99.90;;;;;;5052107;28;20240;-61
2024/02/12 03:00:13;;;;;;;0.67;0.60;;;10.50;99.90;;;;;;5051731;28;20221;-61
2024/02/12 03:02:41;;;;;;;0.80;0.40;;;10.50;99.90;;;;;;5051909;28;20284;-61
2024/02/12 03:05:11;;;;;;;0.77;0.43;;;10.50;99.90;;;;;;5051841;28;20201;-61
2024/02/12 03:07:40;;;;;;;1.07;0.70;;;10.50;99.90;;;;;;5051813;28;20202;-61
2024/02/12 03:10:09;;;;;;;1.20;0.60;;;10.50;99.90;;;;;;5051698;28;20233;-62
2024/02/12 03:12:36;;;;;;;1.20;0.50;;;10.50;99.90;;;;;;5051581;28;20596;-61
2024/02/12 03:15:02;;;;;;;0.70;0.50;;;10.40;99.90;;;;;;5051866;28;20279;-61
2024/02/12 03:17:30;;;;;;;0.90;0.60;;;10.40;99.90;;;;;;5051636;28;20209;-61
2024/02/12 03:19:57;;;;;;;0.60;0.40;;;10.40;99.90;;;;;;5051343;28;20236;-61
2024/02/12 03:22:24;;;;;;;1.73;0.60;;;10.50;99.90;;;;;;5051497;28;20556;-61
2024/02/12 03:24:50;;;;;;;0.67;0.30;;;10.60;99.90;;;;;;5051514;28;20209;-61
2024/02/12 03:27:17;;;;;;;0.30;0.30;;;10.60;99.90;;;;;;5051919;28;20771;-61
2024/02/12 03:29:47;;;;;;;0.37;0.27;;;10.60;99.90;;;;;;5051135;28;20240;-61
2024/02/12 03:32:14;;;;;;;1.10;0.47;;;10.60;99.90;;;;;;5052194;28;20201;-61
2024/02/12 03:34:42;;;;;;;1.03;0.90;;;10.60;99.90;;;;;;5051432;28;20251;-61
2024/02/12 03:37:09;;;;;;;1.10;0.40;;;10.60;99.90;;;;;;5051461;28;20218;-61
2024/02/12 03:39:35;;;;;;;0.80;0.50;;;10.60;99.90;;;;;;5051330;28;20279;-62
2024/02/12 03:42:02;;;;;;;0.83;0.43;;;10.50;99.90;;;;;;5051721;28;20205;-61
2024/02/12 03:44:29;;;;;;;0.30;0.30;;;10.50;99.90;;;;;;5051335;28;20730;-61
2024/02/12 03:46:55;;;;;;;0.43;0.40;;;10.50;99.90;;;;;;5051597;28;20416;-61
2024/02/12 04:00:24;;;;;;;0.67;0.47;;;10.60;99.90;;;;;;5071354;28;20219;-58
2024/02/12 04:02:51;;;;;;;0.40;0.40;;;10.60;99.90;;;;;;5063194;28;20201;-56
2024/02/12 04:05:19;;;;;;;1.20;0.57;;;10.60;99.90;;;;;;5062960;28;20232;-58
2024/02/12 04:07:47;;;;;;;0.83;0.53;;;10.60;99.90;;;;;;5060335;28;20216;-56
2024/02/12 04:10:13;;;;;;;1.60;0.67;;;10.60;99.90;;;;;;5059628;28;20594;-57
2024/02/12 04:12:40;;;;;;;0.93;0.40;;;10.70;99.90;;;;;;5061033;28;20244;-59
2024/02/12 04:15:10;;;;;;;0.80;0.40;;;10.70;99.90;;;;;;5063370;28;20291;-57
2024/02/12 04:17:37;;;;;;;2.00;0.60;;;10.70;99.90;;;;;;5063230;28;20284;-57
2024/02/12 04:20:05;;;;;;;1.00;0.50;;;10.70;99.90;;;;;;5062763;28;20228;-57
2024/02/12 04:22:33;;;;;;;0.97;0.53;;;10.70;99.90;;;;;;5062200;28;20205;-58
2024/02/12 04:25:01;;;;;;;2.10;0.63;;;10.70;99.90;;;;;;5063017;28;20296;-57
2024/02/12 04:27:29;;;;;;;0.67;0.43;;;10.60;99.90;;;;;;5063227;28;20202;-58
2024/02/12 04:29:56;;;;;;;1.10;0.50;;;10.50;99.90;;;;;;5066475;28;20299;-56
2024/02/12 04:32:24;;;;;;;0.87;0.53;;;10.50;99.90;;;;;;5067279;28;20213;-57
2024/02/12 04:34:50;;;;;;;1.13;0.47;;;10.50;99.90;;;;;;5062978;28;20198;-57
2024/02/12 04:37:17;;;;;;;0.80;0.60;;;10.40;99.90;;;;;;5069601;28;20213;-57
2024/02/12 04:39:44;;;;;;;2.23;1.30;;;10.50;99.90;;;;;;5063674;28;20205;-57
2024/02/12 04:42:12;;;;;;;1.97;0.80;;;10.60;99.90;;;;;;5062904;28;20271;-57
2024/02/12 04:44:40;;;;;;;0.77;0.50;;;10.60;99.90;;;;;;5064203;28;20209;-57
2024/02/12 04:47:07;;;;;;;1.97;1.10;;;10.70;99.90;;;;;;5065935;28;20279;-58
2024/02/12 04:49:36;;;;;;;0.97;0.83;;;10.70;99.90;;;;;;5064881;28;20282;-57
2024/02/12 04:52:03;;;;;;;1.10;0.47;;;10.80;99.90;;;;;;5062275;28;20233;-56
2024/02/12 04:54:29;;;;;;;0.87;0.53;;;10.80;99.90;;;;;;5062640;28;20205;-58
2024/02/12 04:56:56;;;;;;;0.97;0.50;;;10.80;99.90;;;;;;5066095;28;20212;-56
2024/02/12 04:59:24;;;;;;;1.70;0.60;;;10.90;99.90;;;;;;5065714;28;20212;-57
2024/02/12 05:01:51;;;;;;;1.90;1.30;;;10.90;99.90;;;;;;5062610;28;20759;-56
2024/02/12 05:04:18;;;;;;;0.90;0.70;;;10.90;99.90;;;;;;5062376;28;20243;-58
2024/02/12 05:06:45;;;;;;;1.00;0.70;;;10.90;99.90;;;;;;5064225;28;20676;-56
2024/02/12 05:09:12;;;;;;;1.00;0.60;;;10.90;99.90;;;;;;5065628;28;20254;-57
2024/02/12 05:11:40;;;;;;;1.10;0.73;;;10.90;99.90;;;;;;5064104;28;20738;-58
2024/02/12 05:14:06;;;;;;;1.50;0.70;;;10.90;99.90;;;;;;5062020;28;20213;-56
2024/02/12 05:16:35;;;;;;;0.50;0.50;;;10.80;99.90;;;;;;5062368;28;20436;-56
2024/02/12 05:24:32;;;;;;;2.97;0.73;;;10.80;99.90;;;;;;5061911;28;20813;-56
2024/02/12 05:26:59;;;;;;;1.77;0.67;;;10.80;99.90;;;;;;5053879;28;20208;-58
2024/02/12 05:29:27;;;;;;;2.03;0.53;;;10.80;99.90;;;;;;5060789;28;20264;-57
2024/02/12 05:31:56;;;;;;;1.43;0.70;;;10.90;99.90;;;;;;5064813;28;20621;-58
2024/02/12 05:34:23;;;;;;;3.70;1.73;;;10.80;99.90;;;;;;5063927;28;20651;-57
2024/02/12 05:36:50;;;;;;;3.40;1.97;;;10.80;99.90;;;;;;5062817;28;20211;-56
2024/02/12 05:39:19;;;;;;;2.10;0.70;;;10.70;99.90;;;;;;5061364;28;20206;-56
2024/02/12 05:41:45;;;;;;;1.80;0.77;;;10.70;99.90;;;;;;5063133;28;20295;-57
2024/02/12 05:44:12;;;;;;;3.57;1.87;;;10.70;99.90;;;;;;5064883;28;20684;-58
2024/02/12 05:46:40;;;;;;;2.17;0.87;;;10.70;99.90;;;;;;5063968;28;20262;-57
2024/02/12 05:49:09;;;;;;;2.70;1.63;;;10.70;99.90;;;;;;5061294;28;20206;-56
2024/02/12 05:51:37;;;;;;;2.37;0.73;;;10.70;99.90;;;;;;5061448;28;20228;-57
2024/02/12 05:54:04;;;;;;;2.93;1.17;;;10.70;99.90;;;;;;5064668;28;20735;-56
2024/02/12 05:56:31;;;;;;;3.23;1.10;;;10.80;99.90;;;;;;5064682;28;20204;-56
2024/02/12 05:58:57;;;;;;;1.47;1.10;;;10.80;99.90;;;;;;5061068;28;20232;-57
2024/02/12 06:01:25;;;;;;;1.23;0.97;;;10.80;99.90;;;;;;5061372;28;20275;-56
2024/02/12 06:03:51;;;;;;;2.63;0.97;;;10.80;99.90;;;;;;5063761;28;20209;-58
2024/02/12 06:06:19;;;;;;;2.67;1.10;;;10.90;99.90;;;;;;5064628;28;20205;-56
2024/02/12 06:08:46;;;;;;;2.00;1.53;;;10.90;99.90;;;;;;5064054;28;20683;-56
2024/02/12 06:11:13;;;;;;;7.90;6.50;;;10.90;99.90;;;;;;5064030;28;20217;-57
2024/02/12 06:13:39;;;;;;;1.60;1.10;;;10.90;99.90;;;;;;5063592;28;20205;-57
2024/02/12 06:16:06;;;;;;;3.03;1.27;;;10.90;99.90;;;;;;5060859;28;20693;-56
2024/02/12 06:18:33;;;;;;;2.20;1.63;;;10.90;99.90;;;;;;5060599;28;20225;-58
2024/02/12 06:21:00;;;;;;;2.53;1.53;;;10.90;99.90;;;;;;5064281;28;20217;-56
2024/02/12 06:23:28;;;;;;;2.33;1.40;;;10.90;99.90;;;;;;5064119;28;20670;-57
2024/02/12 06:25:54;;;;;;;1.70;1.27;;;10.90;99.90;;;;;;5061131;28;20213;-56
2024/02/12 06:28:22;;;;;;;2.03;1.63;;;10.90;99.90;;;;;;5060867;28;20198;-58
2024/02/12 06:30:48;;;;;;;3.73;1.73;;;10.80;99.90;;;;;;5062470;28;20229;-56
2024/02/12 06:33:15;;;;;;;2.43;1.97;;;10.80;99.90;;;;;;5063768;28;20666;-58
2024/02/12 06:35:42;;;;;;;2.83;1.60;;;10.80;99.90;;;;;;5062703;28;20205;-57
2024/02/12 06:38:08;;;;;;;3.03;2.20;;;10.90;99.90;;;;;;5060252;28;20582;-57
2024/02/12 06:40:36;;;;;;;2.60;2.00;;;10.90;99.90;;;;;;5060197;28;20217;-58
2024/02/12 06:43:04;;;;;;;4.57;2.63;;;10.90;99.90;;;;;;5064034;28;20204;-58
2024/02/12 06:45:31;;;;;;;3.73;2.03;;;10.90;99.90;;;;;;5063789;28;20470;-57
2024/02/12 06:47:58;;;;;;;5.77;2.80;;;10.90;99.90;;;;;;5063722;28;20295;-56
2024/02/12 06:50:25;;;;;;;5.37;2.70;;;10.90;99.90;;;;;;5063087;28;20233;-57
2024/02/12 06:52:52;;;;;;;4.63;2.60;;;10.90;99.90;;;;;;5061123;28;20209;-58
2024/02/12 06:55:19;;;;;;;4.60;2.40;;;10.80;99.90;;;;;;5060195;28;20289;-57
2024/02/12 06:57:47;;;;;;;4.00;2.30;;;10.80;99.90;;;;;;5061845;28;20206;-57
2024/02/12 07:00:15;;;;;;;4.63;3.13;;;10.80;99.90;;;;;;5063494;28;20240;-58
2024/02/12 07:02:42;;;;;;;5.80;3.60;;;10.80;99.90;;;;;;5062654;28;20201;-57
2024/02/12 07:05:12;;;;;;;6.60;3.17;;;10.80;99.90;;;;;;5060048;28;20206;-57
2024/02/12 07:07:39;;;;;;;8.57;2.80;;;10.90;99.90;;;;;;5060619;28;20202;-57
2024/02/12 07:10:06;;;;;;;4.83;2.60;;;10.80;99.90;;;;;;5063124;28;20657;-58
2024/02/12 07:12:33;;;;;;;4.90;3.00;;;10.80;99.90;;;;;;5063668;28;20250;-57
2024/02/12 07:15:02;;;;;;;6.93;3.10;;;10.70;99.90;;;;;;5051751;28;20336;-57
2024/02/12 07:17:30;;;;;;;6.00;2.73;;;10.70;99.90;;;;;;5059058;28;20215;-57
2024/02/12 07:19:57;;;;;;;6.83;3.30;;;10.80;99.90;;;;;;5059625;28;20206;-57
2024/02/12 07:22:24;;;;;;;4.53;2.60;;;10.80;99.90;;;;;;5059924;28;20205;-60
2024/02/12 07:24:51;;;;;;;6.10;3.07;;;10.80;99.90;;;;;;5061748;28;20217;-57
2024/02/12 07:27:18;;;;;;;5.37;3.03;;;10.80;99.90;;;;;;5063205;28;20678;-56
2024/02/12 07:29:45;;;;;;;7.40;3.50;;;10.80;99.90;;;;;;5061828;28;20567;-57
2024/02/12 07:32:14;;;;;;;4.20;2.50;;;10.80;99.90;;;;;;5059487;28;20227;-56
2024/02/12 07:34:41;;;;;;;3.87;2.63;;;10.80;99.90;;;;;;5060370;28;20236;-56
2024/02/12 07:37:08;;;;;;;3.73;2.40;;;10.80;99.90;;;;;;5067209;28;20216;-56
2024/02/12 07:39:38;;;;;;;5.13;3.00;;;10.80;99.90;;;;;;5059589;28;20240;-56
2024/02/12 07:42:06;;;;;;;5.97;2.80;;;10.90;99.90;;;;;;5052337;28;20216;-55
2024/02/12 07:44:33;;;;;;;6.37;5.00;;;10.90;99.90;;;;;;5059625;28;20236;-57
2024/02/12 07:47:01;;;;;;;6.10;3.00;;;11.00;99.90;;;;;;5062908;28;20205;-56
2024/02/12 07:49:30;;;;;;;4.57;2.70;;;11.00;99.90;;;;;;5062960;28;20197;-57
2024/02/12 07:51:59;;;;;;;4.43;2.60;;;11.00;99.90;;;;;;5062764;28;20225;-58
2024/02/12 07:54:26;;;;;;;7.43;3.43;;;11.10;99.90;;;;;;5063024;28;20568;-56
2024/02/12 07:56:53;;;;;;;4.47;2.40;;;11.10;99.90;;;;;;5060589;28;20662;-56
2024/02/12 07:59:19;;;;;;;3.17;1.97;;;11.10;99.90;;;;;;5062574;28;20197;-56
2024/02/12 08:01:46;;;;;;;5.73;2.00;;;11.10;99.90;;;;;;5064645;28;20295;-56
2024/02/12 08:04:13;;;;;;;3.40;2.07;;;11.10;99.90;;;;;;5067067;28;20201;-57
2024/02/12 08:06:41;;;;;;;4.20;2.70;;;11.20;99.90;;;;;;5066671;28;20201;-57
2024/02/12 08:09:10;;;;;;;47.53;37.80;;;11.30;99.90;;;;;;5066512;28;20216;-57
2024/02/12 08:11:37;;;;;;;12.70;8.77;;;11.30;99.90;;;;;;5066636;28;20220;-57
2024/02/12 08:14:09;;;;;;;7.10;3.10;;;11.40;99.90;;;;;;5063419;28;20197;-56
2024/02/12 08:16:35;;;;;;;2.57;1.93;;;11.40;99.90;;;;;;5063134;28;20205;-57
2024/02/12 08:19:02;;;;;;;3.10;2.00;;;11.40;99.90;;;;;;5066367;28;20208;-56
2024/02/12 08:21:29;;;;;;;2.57;1.60;;;11.30;99.90;;;;;;5066547;28;20245;-57
2024/02/12 08:23:57;;;;;;;3.13;1.73;;;11.40;99.90;;;;;;5058207;28;20289;-56
2024/02/12 08:26:25;;;;;;;4.60;1.80;;;11.40;99.90;;;;;;5066687;28;20212;-56
2024/02/12 08:28:52;;;;;;;3.07;1.90;;;11.50;99.90;;;;;;5064031;28;20607;-56
2024/02/12 08:31:18;;;;;;;3.60;1.67;;;11.60;99.90;;;;;;5062907;28;20221;-56
2024/02/12 08:33:47;;;;;;;2.10;1.70;;;11.60;99.90;;;;;;5063835;28;20683;-57
2024/02/12 08:36:14;;;;;;;3.63;2.00;;;11.80;99.90;;;;;;5066418;28;20211;-56
2024/02/12 08:38:41;;;;;;;5.67;1.80;;;12.00;99.90;;;;;;5065318;28;20223;-57
2024/02/12 08:41:09;;;;;;;2.20;1.70;;;12.20;99.90;;;;;;5066965;28;20259;-56
2024/02/12 08:43:36;;;;;;;4.17;1.73;;;12.40;99.90;;;;;;5066085;28;20201;-57
2024/02/12 08:46:03;;;;;;;4.73;1.90;;;12.60;99.90;;;;;;5066417;28;20212;-56
2024/02/12 08:48:29;;;;;;;3.17;1.70;;;12.70;99.90;;;;;;5065123;28;20438;-65
2024/02/12 08:50:56;;;;;;;2.70;1.53;;;12.70;99.90;;;;;;5062995;28;20231;-63
2024/02/12 08:53:23;;;;;;;3.97;1.87;;;12.70;99.90;;;;;;5062296;28;20198;-63
2024/02/12 08:55:51;;;;;;;2.43;1.63;;;12.80;99.90;;;;;;5061576;28;20213;-60
2024/02/12 08:58:19;;;;;;;3.07;1.70;;;12.70;99.90;;;;;;5065764;28;20201;-61
2024/02/12 09:00:46;;;;;;;3.97;1.70;;;12.80;99.90;;;;;;5064162;28;20217;-60
2024/02/12 09:03:13;;;;;;;2.97;2.10;;;12.70;99.90;;;;;;5061848;28;20252;-61
2024/02/12 09:05:41;;;;;;;3.47;1.87;;;12.70;99.90;;;;;;5062484;28;20576;-61
2024/02/12 09:08:08;;;;;;;2.93;1.67;;;12.70;99.90;;;;;;5065305;28;20229;-59
2024/02/12 09:10:34;;;;;;;2.60;1.43;;;12.70;99.90;;;;;;5064697;28;20893;-61
2024/02/12 09:13:04;;;;;;;2.30;1.37;;;12.80;99.90;;;;;;5062174;28;20212;-60
2024/02/12 09:15:32;;;;;;;1.80;1.17;;;12.80;99.90;;;;;;5061924;28;20229;-61
2024/02/12 09:17:59;;;;;;;3.73;2.53;;;12.70;99.90;;;;;;5070115;28;20209;-61
2024/02/12 09:20:26;;;;;;;6.60;4.37;;;12.70;99.90;;;;;;5061257;28;20396;-62
2024/02/12 09:22:53;;;;;;;3.97;2.27;;;12.70;99.90;;;;;;5060547;28;20213;-64
2024/02/12 09:25:20;;;;;;;2.80;2.00;;;12.80;99.90;;;;;;5046913;28;20202;-60
2024/02/12 09:27:47;;;;;;;3.13;1.57;;;12.90;99.90;;;;;;5052594;28;20624;-59
2024/02/12 09:30:15;;;;;;;4.13;1.63;;;13.00;99.90;;;;;;5052980;28;20236;-58
2024/02/12 09:32:44;;;;;;;2.97;1.80;;;13.20;99.90;;;;;;5053155;28;20741;-58
2024/02/12 09:35:11;;;;;;;2.50;2.00;;;13.30;99.90;;;;;;5052952;28;20201;-58
2024/02/12 09:37:39;;;;;;;2.53;1.70;;;13.50;99.90;;;;;;5053151;28;20585;-57
2024/02/12 09:40:07;;;;;;;4.43;1.77;;;13.60;99.90;;;;;;5052616;28;20287;-59
2024/02/12 09:42:35;;;;;;;1.87;1.27;;;13.70;99.90;;;;;;5061471;28;20209;-59
2024/02/12 09:45:07;;;;;;;2.77;1.30;;;13.80;99.90;;;;;;5052793;28;20233;-59
2024/02/12 09:47:36;;;;;;;1.87;1.10;;;13.90;99.90;;;;;;5052885;28;20202;-58
2024/02/12 09:50:07;;;;;;;2.10;1.30;;;14.10;99.90;;;;;;5052094;28;20574;-58
2024/02/12 09:52:35;;;;;;;1.50;1.20;;;14.30;99.90;;;;;;5052583;28;20655;-58
2024/02/12 09:55:04;;;;;;;4.43;1.13;;;14.60;99.90;;;;;;5052180;28;20212;-58
2024/02/12 09:57:31;;;;;;;1.50;1.10;;;14.80;99.90;;;;;;5052561;28;20275;-58
2024/02/12 09:59:58;;;;;;;1.33;1.23;;;14.70;99.90;;;;;;5052240;28;20293;-57
2024/02/12 10:02:25;;;;;;;2.03;1.70;;;14.70;99.90;;;;;;5052208;28;20264;-58
2024/02/12 10:04:52;;;;;;;1.90;1.00;;;14.60;99.90;;;;;;5052064;28;20672;-57
2024/02/12 10:07:20;;;;;;;1.77;1.07;;;14.60;99.90;;;;;;5052619;28;20266;-58
2024/02/12 10:09:47;;;;;;;1.33;1.00;;;14.50;99.90;;;;;;5052094;28;20319;-59
2024/02/12 10:12:14;;;;;;;1.10;1.00;;;14.50;99.90;;;;;;5052331;28;20228;-57
2024/02/12 10:14:42;;;;;;;3.17;1.30;;;14.60;99.90;;;;;;5052035;28;20596;-58
2024/02/12 10:17:08;;;;;;;2.50;1.70;;;14.60;99.90;;;;;;5051838;28;20213;-57
2024/02/12 10:19:37;;;;;;;3.00;0.90;;;14.50;99.90;;;;;;5052196;28;20391;-58
2024/02/12 10:22:04;;;;;;;7.30;1.43;;;14.30;99.90;;;;;;5051621;28;20217;-57
2024/02/12 10:24:32;;;;;;;3.00;1.20;;;14.10;99.90;;;;;;5052387;28;20209;-58
2024/02/12 10:26:58;;;;;;;1.63;1.40;;;14.00;99.90;;;;;;5051909;28;20275;-57
2024/02/12 10:29:27;;;;;;;1.30;1.20;;;13.80;99.90;;;;;;5051465;28;20210;-59
2024/02/12 10:31:54;;;;;;;56.00;47.47;;;13.70;99.90;;;;;;5051498;28;20706;-57
2024/02/12 10:34:23;;;;;;;2.83;1.87;;;13.60;99.90;;;;;;5051814;28;20206;-60
2024/02/12 10:36:56;;;;;;;3.77;1.50;;;13.70;99.90;;;;;;5052050;28;20266;-63
2024/02/12 10:39:23;;;;;;;2.43;1.50;;;13.80;99.90;;;;;;5051551;28;20237;-60
2024/02/12 10:41:57;;;;;;;5.07;1.37;;;13.80;99.90;;;;;;5051130;28;20229;-60
2024/02/12 10:44:24;;;;;;;2.10;1.40;;;13.80;99.90;;;;;;5052105;28;20221;-61
2024/02/12 10:46:51;;;;;;;4.13;1.70;;;13.80;99.90;;;;;;5051421;28;20281;-60
2024/02/12 10:49:20;;;;;;;1.60;1.40;;;13.80;99.90;;;;;;5051542;28;20212;-58
2024/02/12 10:51:54;;;;;;;4.43;1.30;;;13.70;99.90;;;;;;5051644;28;20237;-58
2024/02/12 10:54:21;;;;;;;1.50;1.40;;;13.70;99.90;;;;;;5051236;28;20233;-59
2024/02/12 10:56:49;;;;;;;1.73;1.27;;;13.80;99.90;;;;;;5051797;28;20213;-64
2024/02/12 10:59:17;;;;;;;1.83;1.20;;;14.00;99.90;;;;;;5051518;28;20205;-58
2024/02/12 11:01:45;;;;;;;2.20;1.50;;;14.20;99.90;;;;;;5051581;28;20267;-62
2024/02/12 11:04:14;;;;;;;2.03;1.50;;;14.10;99.90;;;;;;5051632;28;20214;-62
2024/02/12 11:06:42;;;;;;;2.57;1.60;;;14.00;99.90;;;;;;5051714;28;20282;-60
2024/02/12 11:09:09;;;;;;;3.50;1.43;;;13.90;99.90;;;;;;5054971;28;20288;-63
2024/02/12 11:11:44;;;;;;;2.70;1.87;;;13.60;99.90;;;;;;5055804;28;20237;-59
2024/02/12 11:14:14;;;;;;;2.53;1.37;;;13.40;99.90;;;;;;5043733;28;20205;-60
2024/02/12 11:16:43;;;;;;;2.87;1.63;;;13.10;99.90;;;;;;5051188;28;20205;-62
2024/02/12 11:19:15;;;;;;;3.63;1.50;;;12.90;99.90;;;;;;5043685;28;20209;-60
2024/02/12 11:21:44;;;;;;;2.93;1.47;;;12.80;99.90;;;;;;5051461;28;20244;-58
2024/02/12 11:24:12;;;;;;;1.90;1.30;;;12.80;99.90;;;;;;5043774;28;20229;-56
2024/02/12 11:26:40;;;;;;;5.47;4.57;;;12.70;99.90;;;;;;5051182;28;20659;-61
2024/02/12 11:29:07;;;;;;;2.97;1.70;;;12.50;99.90;;;;;;5050694;28;20206;-64
2024/02/12 11:31:37;;;;;;;2.50;1.50;;;12.50;99.90;;;;;;5051390;28;20233;-60
2024/02/12 11:34:12;;;;;;;3.67;1.97;;;12.60;99.90;;;;;;5055061;28;20714;-63
2024/02/12 11:36:40;;;;;;;4.13;1.50;;;12.70;99.90;;;;;;5055740;28;20239;-63
2024/02/12 11:39:08;;;;;;;2.73;1.60;;;12.80;99.90;;;;;;5055129;28;20971;-59
2024/02/12 11:41:34;;;;;;;2.10;1.57;;;12.90;99.90;;;;;;5055215;28;20252;-57
2024/02/12 11:44:05;;;;;;;1.77;1.43;;;13.00;99.90;;;;;;5055367;28;20209;-61
2024/02/12 11:46:32;;;;;;;1.37;1.17;;;13.20;99.90;;;;;;5055086;28;20663;-60
2024/02/12 11:49:05;;;;;;;4.00;1.90;;;13.40;99.90;;;;;;5052879;28;20263;-58
2024/02/12 11:51:34;;;;;;;3.53;1.53;;;13.50;99.90;;;;;;5054998;28;20233;-61
2024/02/12 11:54:01;;;;;;;3.73;1.37;;;13.50;99.90;;;;;;5052346;28;20205;-58
2024/02/12 11:56:28;;;;;;;4.27;1.80;;;13.50;99.90;;;;;;5049431;28;20197;-59
2024/02/12 11:58:55;;;;;;;7.43;1.70;;;13.50;99.90;;;;;;5055156;28;20244;-61
2024/02/12 12:01:22;;;;;;;3.33;1.63;;;13.50;99.90;;;;;;5054749;28;20312;-60
2024/02/12 12:03:49;;;;;;;3.03;1.77;;;13.60;99.90;;;;;;5054689;28;20213;-59
2024/02/12 12:06:17;;;;;;;2.80;1.27;;;13.90;99.90;;;;;;5054857;28;20205;-60
2024/02/12 12:08:48;;;;;;;1.37;1.20;;;13.90;99.90;;;;;;5054550;28;20237;-59
2024/02/12 12:11:18;;;;;;;2.27;1.40;;;14.00;99.90;;;;;;5046453;28;20633;-57
2024/02/12 12:13:45;;;;;;;3.53;1.50;;;14.20;99.90;;;;;;5054839;28;20230;-58
2024/02/12 12:16:12;;;;;;;2.43;1.17;;;14.30;99.90;;;;;;5046147;28;20547;-58
2024/02/12 12:18:39;;;;;;;3.80;1.53;;;14.20;99.90;;;;;;5053990;28;20576;-57
2024/02/12 12:21:07;;;;;;;3.17;1.33;;;14.20;99.90;;;;;;5054297;28;20597;-57
2024/02/12 12:23:34;;;;;;;3.80;1.40;;;14.30;99.90;;;;;;5054486;28;20216;-57
2024/02/12 12:26:02;;;;;;;3.20;1.50;;;14.20;99.90;;;;;;5054629;28;20206;-59
2024/02/12 12:28:28;;;;;;;2.13;1.10;;;14.10;99.90;;;;;;5054461;28;20205;-59
2024/02/12 12:30:55;;;;;;;3.37;1.30;;;13.90;99.90;;;;;;5053706;28;20226;-59
2024/02/12 12:33:23;;;;;;;3.73;1.70;;;13.90;99.90;;;;;;5045542;28;20649;-57
2024/02/12 12:35:50;;;;;;;2.67;1.40;;;13.90;99.90;;;;;;5054366;28;20210;-59
2024/02/12 12:38:17;;;;;;;2.37;1.50;;;14.00;99.90;;;;;;5054381;28;20202;-57
2024/02/12 12:40:44;;;;;;;3.53;1.50;;;14.10;99.90;;;;;;5054025;28;20222;-58
2024/02/12 12:43:12;;;;;;;1.53;1.10;;;14.30;99.90;;;;;;5045368;28;20687;-59
2024/02/12 12:45:38;;;;;;;3.93;1.50;;;14.50;99.90;;;;;;5053280;28;20220;-59
2024/02/12 12:48:07;;;;;;;2.70;1.53;;;14.60;99.90;;;;;;5054165;28;20292;-58
2024/02/12 12:50:34;;;;;;;3.30;1.37;;;14.40;99.90;;;;;;5054248;28;20240;-57
2024/02/12 12:53:00;;;;;;;2.23;1.20;;;14.30;99.90;;;;;;5053967;28;20620;-61
2024/02/12 12:55:27;;;;;;;6.10;4.07;;;14.20;99.90;;;;;;5053711;28;20613;-57
2024/02/12 12:57:54;;;;;;;2.83;1.30;;;14.10;99.90;;;;;;5054133;28;20296;-59
2024/02/12 13:00:26;;;;;;;1.97;1.00;;;14.20;99.90;;;;;;5053914;28;20271;-61
2024/02/12 13:02:53;;;;;;;2.60;1.30;;;14.40;99.90;;;;;;5053948;28;20292;-64